Time;durP1;ratioP1;P1;durP2;ratioP2;P2;SDS_P1;SDS_P2;PMS_P1;PMS_P2;Temp;Humidity;BMP_temperature;BMP_pressure;BME280_temperature;BME280_humidity;BME280_pressure;Samples;Min_cycle;Max_cycle;Signal;HPM_P1;HPM_P2
2021/12/11 00:00:22;;;;;;;18.25;3.50;;;;;;;;;;4994745;28;20019;-67
2021/12/11 00:02:57;;;;;;;13.20;3.80;;;;;;;;;;4994183;28;20030;-66
2021/12/11 00:05:23;;;;;;;20.02;3.30;;;;;;;;;;4991099;28;20081;-67
2021/12/11 00:07:50;;;;;;;16.27;3.38;;;;;;;;;;4994436;28;20034;-67
2021/12/11 00:10:21;;;;;;;23.20;3.72;;;;;;;;;;4994346;28;20036;-67
2021/12/11 00:12:50;;;;;;;22.52;4.45;;;;;;;;;;4994168;28;20027;-67
2021/12/11 00:15:22;;;;;;;18.63;4.82;;;;;;;;;;4994677;28;20490;-67
2021/12/11 00:17:48;;;;;;;20.10;5.10;;;;;;;;;;4993815;28;20026;-67
2021/12/11 00:20:17;;;;;;;27.67;5.45;;;;;;;;;;4994730;28;20034;-67
2021/12/11 00:22:44;;;;;;;24.67;4.97;;;;;;;;;;4992755;28;20068;-67
2021/12/11 00:25:11;;;;;;;24.52;4.22;;;;;;;;;;4994298;28;20018;-67
2021/12/11 00:27:41;;;;;;;29.30;5.57;;;;;;;;;;4993932;28;20394;-67
2021/12/11 00:30:10;;;;;;;24.27;6.18;;;;;;;;;;5009336;28;20034;-67
2021/12/11 00:32:36;;;;;;;18.67;5.72;;;;;;;;;;4994034;28;20033;-67
2021/12/11 00:35:17;;;;;;;26.73;5.60;;;;;;;;;;4994087;28;20117;-67
2021/12/11 00:37:43;;;;;;;34.47;5.07;;;;;;;;;;4993592;28;20062;-66
2021/12/11 00:40:14;;;;;;;24.33;6.13;;;;;;;;;;4994150;28;20050;-67
2021/12/11 00:42:46;;;;;;;23.20;5.40;;;;;;;;;;4993598;28;20034;-66
2021/12/11 00:45:18;;;;;;;24.38;5.47;;;;;;;;;;4994388;28;20037;-67
2021/12/11 00:47:54;;;;;;;26.17;4.32;;;;;;;;;;4992564;28;20088;-67
2021/12/11 00:50:22;;;;;;;21.52;5.30;;;;;;;;;;4994119;28;20049;-67
2021/12/11 00:52:51;;;;;;;38.00;5.82;;;;;;;;;;4993721;28;20022;-67
2021/12/11 00:55:29;;;;;;;27.00;3.67;;;;;;;;;;4993233;28;20019;-67
2021/12/11 00:58:09;;;;;;;27.45;4.97;;;;;;;;;;4993759;28;20069;-67
2021/12/11 01:00:41;;;;;;;20.70;3.72;;;;;;;;;;4992852;28;20382;-67
2021/12/11 01:03:08;;;;;;;15.23;4.00;;;;;;;;;;4983689;28;20026;-67
2021/12/11 01:05:36;;;;;;;22.30;4.63;;;;;;;;;;4992959;28;20034;-67
2021/12/11 01:08:11;;;;;;;18.02;3.80;;;;;;;;;;4993636;28;20148;-67
2021/12/11 01:10:38;;;;;;;20.05;3.28;;;;;;;;;;4985682;28;20085;-67
2021/12/11 01:13:05;;;;;;;20.08;4.82;;;;;;;;;;4993179;28;20022;-67
2021/12/11 01:15:45;;;;;;;19.17;4.25;;;;;;;;;;4992936;28;20022;-67
2021/12/11 01:20:51;;;;;;;18.77;4.70;;;;;;;;;;4992852;28;20097;-67
2021/12/11 01:26:05;;;;;;;17.58;4.53;;;;;;;;;;4954168;28;20043;-67
2021/12/11 01:28:32;;;;;;;21.35;4.35;;;;;;;;;;4952371;28;20053;-66
2021/12/11 01:30:59;;;;;;;25.42;5.60;;;;;;;;;;4951403;29;20035;-67
2021/12/11 01:33:25;;;;;;;20.38;5.50;;;;;;;;;;4951831;28;20423;-67
2021/12/11 01:35:51;;;;;;;15.50;4.55;;;;;;;;;;4952066;28;20048;-67
2021/12/11 01:38:19;;;;;;;21.50;4.43;;;;;;;;;;4952435;28;20610;-66
2021/12/11 01:40:46;;;;;;;22.83;4.07;;;;;;;;;;4955921;28;20027;-67
2021/12/11 01:43:13;;;;;;;19.77;3.65;;;;;;;;;;4955478;28;20455;-67
2021/12/11 01:45:42;;;;;;;20.35;3.08;;;;;;;;;;4952485;28;20043;-67
2021/12/11 01:48:08;;;;;;;21.30;3.78;;;;;;;;;;4953272;28;20122;-67
2021/12/11 01:50:36;;;;;;;24.48;4.05;;;;;;;;;;4964051;28;20043;-67
2021/12/11 01:53:02;;;;;;;30.40;3.97;;;;;;;;;;4952229;29;20431;-67
2021/12/11 01:55:33;;;;;;;17.52;3.50;;;;;;;;;;4952071;28;20031;-67
2021/12/11 01:58:00;;;;;;;23.13;3.47;;;;;;;;;;4952038;29;20075;-67
2021/12/11 02:00:32;;;;;;;18.23;3.35;;;;;;;;;;4953128;28;20023;-67
2021/12/11 02:02:59;;;;;;;14.63;2.73;;;;;;;;;;4980041;28;20057;-67
2021/12/11 02:05:28;;;;;;;18.00;3.03;;;;;;;;;;4992583;28;20030;-67
2021/12/11 02:07:56;;;;;;;21.50;3.22;;;;;;;;;;4992241;28;20085;-67
2021/12/11 02:10:27;;;;;;;27.15;3.42;;;;;;;;;;4992495;28;20026;-66
2021/12/11 02:12:54;;;;;;;18.63;2.85;;;;;;;;;;4992571;28;20430;-67
2021/12/11 02:15:30;;;;;;;15.10;2.95;;;;;;;;;;4991570;28;20388;-67
2021/12/11 02:18:10;;;;;;;19.27;4.03;;;;;;;;;;4992113;28;20026;-67
2021/12/11 02:20:42;;;;;;;31.23;4.22;;;;;;;;;;4992796;28;20520;-67
2021/12/11 02:23:09;;;;;;;28.75;3.58;;;;;;;;;;4992033;28;20035;-67
2021/12/11 02:25:38;;;;;;;20.65;2.83;;;;;;;;;;4992232;28;20456;-67
2021/12/11 02:28:09;;;;;;;15.50;2.65;;;;;;;;;;4991699;28;20457;-67
2021/12/11 02:30:38;;;;;;;23.35;3.92;;;;;;;;;;4992346;28;20080;-67
2021/12/11 02:33:06;;;;;;;20.45;3.78;;;;;;;;;;4992262;28;20031;-67
2021/12/11 02:35:43;;;;;;;36.00;4.10;;;;;;;;;;4991938;28;20050;-67
2021/12/11 02:38:16;;;;;;;23.40;3.90;;;;;;;;;;4991821;28;20022;-67
2021/12/11 02:40:52;;;;;;;18.00;2.67;;;;;;;;;;4992407;28;20029;-67
2021/12/11 02:43:34;;;;;;;19.95;3.05;;;;;;;;;;4991958;28;20027;-67
2021/12/11 02:46:16;;;;;;;23.13;3.05;;;;;;;;;;4992996;28;20033;-67
2021/12/11 02:48:47;;;;;;;11.75;3.08;;;;;;;;;;4982343;28;20041;-67
2021/12/11 02:51:18;;;;;;;14.48;2.92;;;;;;;;;;4994362;28;20022;-67
2021/12/11 02:53:47;;;;;;;17.20;2.67;;;;;;;;;;4993498;28;20163;-67
2021/12/11 02:56:17;;;;;;;12.75;2.85;;;;;;;;;;4994219;28;20022;-67
2021/12/11 02:58:45;;;;;;;19.88;3.00;;;;;;;;;;4993060;28;20053;-67
2021/12/11 03:01:21;;;;;;;16.08;3.75;;;;;;;;;;4993106;28;20042;-67
2021/12/11 03:03:52;;;;;;;28.95;4.05;;;;;;;;;;4989953;28;20089;-67
2021/12/11 03:06:22;;;;;;;23.80;3.58;;;;;;;;;;4986066;28;20023;-67
2021/12/11 03:08:50;;;;;;;21.80;3.15;;;;;;;;;;4994165;28;20030;-67
2021/12/11 03:11:18;;;;;;;16.92;3.00;;;;;;;;;;4994329;28;20026;-67
2021/12/11 03:13:50;;;;;;;17.00;3.40;;;;;;;;;;4993212;28;20030;-67
2021/12/11 03:16:21;;;;;;;17.20;3.65;;;;;;;;;;4993547;28;20029;-67
2021/12/11 03:18:47;;;;;;;21.55;3.28;;;;;;;;;;4993329;28;20041;-67
2021/12/11 03:21:13;;;;;;;19.75;3.30;;;;;;;;;;4993793;28;20018;-67
2021/12/11 03:23:40;;;;;;;19.70;3.90;;;;;;;;;;4993335;28;20038;-67
2021/12/11 03:26:06;;;;;;;16.27;3.05;;;;;;;;;;4992610;28;20034;-67
2021/12/11 03:28:32;;;;;;;19.23;3.83;;;;;;;;;;4993471;28;20418;-67
2021/12/11 03:31:01;;;;;;;19.90;3.72;;;;;;;;;;4993463;28;20065;-67
2021/12/11 03:33:29;;;;;;;16.85;3.72;;;;;;;;;;4993094;28;20026;-67
2021/12/11 03:35:56;;;;;;;25.10;5.22;;;;;;;;;;4992997;28;20078;-66
2021/12/11 03:38:23;;;;;;;20.02;3.58;;;;;;;;;;4993540;28;20026;-67
2021/12/11 03:40:50;;;;;;;23.17;4.22;;;;;;;;;;4993465;28;20080;-67
2021/12/11 03:43:17;;;;;;;22.42;3.78;;;;;;;;;;4993275;28;20029;-67
2021/12/11 03:45:45;;;;;;;17.13;3.30;;;;;;;;;;4993607;28;20156;-67
2021/12/11 03:48:13;;;;;;;17.42;3.03;;;;;;;;;;4991349;28;20049;-67
2021/12/11 03:50:40;;;;;;;22.15;3.90;;;;;;;;;;4990487;28;20026;-67
2021/12/11 03:53:06;;;;;;;21.77;3.80;;;;;;;;;;4992297;28;20033;-67
2021/12/11 03:55:38;;;;;;;25.33;3.63;;;;;;;;;;4993273;28;20386;-67
2021/12/11 03:58:06;;;;;;;19.05;3.00;;;;;;;;;;4991758;28;20100;-67
2021/12/11 04:00:45;;;;;;;18.95;3.60;;;;;;;;;;4992959;28;20141;-67
2021/12/11 04:03:14;;;;;;;24.90;3.70;;;;;;;;;;4992737;28;20023;-67
2021/12/11 04:05:41;;;;;;;22.92;3.40;;;;;;;;;;4993037;28;20050;-67
2021/12/11 04:08:08;;;;;;;18.02;3.35;;;;;;;;;;4992153;28;20523;-66
2021/12/11 04:10:34;;;;;;;15.90;3.08;;;;;;;;;;4992269;28;20026;-67
2021/12/11 04:13:03;;;;;;;21.40;4.18;;;;;;;;;;4992646;28;20015;-66
2021/12/11 04:15:29;;;;;;;18.30;2.78;;;;;;;;;;4992085;28;20024;-67
2021/12/11 04:17:55;;;;;;;21.02;3.42;;;;;;;;;;4992382;28;20058;-67
2021/12/11 04:20:23;;;;;;;22.38;2.95;;;;;;;;;;4989969;28;20054;-67
2021/12/11 04:22:50;;;;;;;13.10;2.85;;;;;;;;;;4993854;28;20034;-67
2021/12/11 04:25:18;;;;;;;17.83;3.28;;;;;;;;;;4993342;28;20038;-67
2021/12/11 04:27:44;;;;;;;22.27;2.88;;;;;;;;;;4993421;28;20125;-67
2021/12/11 04:30:12;;;;;;;20.30;3.72;;;;;;;;;;4993297;28;20069;-67
2021/12/11 04:32:38;;;;;;;15.23;3.88;;;;;;;;;;4994179;28;20113;-67
2021/12/11 04:35:06;;;;;;;13.20;2.80;;;;;;;;;;4993135;28;20050;-66
2021/12/11 04:37:33;;;;;;;15.88;3.28;;;;;;;;;;4978476;28;20026;-67
2021/12/11 04:40:03;;;;;;;17.77;3.05;;;;;;;;;;4993449;28;20486;-67
2021/12/11 04:45:06;;;;;;;21.63;3.65;;;;;;;;;;4993402;28;20035;-67
2021/12/11 04:47:38;;;;;;;19.42;3.08;;;;;;;;;;4989025;28;20036;-67
2021/12/11 04:50:10;;;;;;;19.15;3.40;;;;;;;;;;4993395;28;20038;-67
2021/12/11 04:52:53;;;;;;;18.38;3.65;;;;;;;;;;4993475;28;20034;-67
2021/12/11 05:03:51;;;;;;;24.80;5.32;;;;;;;;;;4992976;28;20478;-67
2021/12/11 05:06:49;;;;;;;20.58;5.03;;;;;;;;;;4992841;28;20443;-67
2021/12/11 05:09:24;;;;;;;27.27;5.45;;;;;;;;;;4989004;28;20046;-67
2021/12/11 05:12:07;;;;;;;22.58;6.18;;;;;;;;;;4992582;28;20088;-66
2021/12/11 05:14:34;;;;;;;24.45;5.28;;;;;;;;;;4993099;28;20442;-67
2021/12/11 05:17:00;;;;;;;24.40;5.00;;;;;;;;;;4993215;28;20034;-67
2021/12/11 05:19:26;;;;;;;25.33;6.18;;;;;;;;;;4992557;28;20026;-67
2021/12/11 05:21:52;;;;;;;22.30;4.75;;;;;;;;;;4992938;28;20410;-67
2021/12/11 05:24:20;;;;;;;18.92;3.60;;;;;;;;;;4992660;28;20030;-67
2021/12/11 05:26:47;;;;;;;16.10;3.78;;;;;;;;;;4993623;28;20032;-66
2021/12/11 05:29:13;;;;;;;18.83;3.45;;;;;;;;;;4993041;28;20030;-66
2021/12/11 05:31:39;;;;;;;25.20;3.92;;;;;;;;;;4986636;28;20026;-66
2021/12/11 05:34:06;;;;;;;22.05;3.83;;;;;;;;;;4992631;28;20030;-67
2021/12/11 05:36:35;;;;;;;25.90;4.03;;;;;;;;;;4992624;28;20033;-67
2021/12/11 05:39:04;;;;;;;25.45;4.50;;;;;;;;;;4992870;28;20120;-67
2021/12/11 05:41:30;;;;;;;17.02;3.15;;;;;;;;;;4993432;28;20030;-67
2021/12/11 05:43:57;;;;;;;17.42;3.15;;;;;;;;;;4992331;28;20022;-67
2021/12/11 05:46:23;;;;;;;22.83;2.97;;;;;;;;;;4992700;28;20047;-67
2021/12/11 05:48:50;;;;;;;12.95;2.67;;;;;;;;;;4992965;28;20389;-67
2021/12/11 05:51:20;;;;;;;25.45;6.50;;;;;;;;;;4992978;28;20034;-67
2021/12/11 05:53:47;;;;;;;17.00;3.30;;;;;;;;;;4991919;28;20032;-67
2021/12/11 05:56:13;;;;;;;17.10;3.50;;;;;;;;;;4992658;28;20038;-67
2021/12/11 06:01:18;;;;;;;17.35;4.82;;;;;;;;;;4992492;28;20034;-67
2021/12/11 06:03:44;;;;;;;24.67;3.38;;;;;;;;;;4991158;28;20110;-67
2021/12/11 06:06:10;;;;;;;16.60;2.95;;;;;;;;;;4991904;28;20402;-68
2021/12/11 06:08:36;;;;;;;14.93;3.35;;;;;;;;;;4992630;28;20037;-67
2021/12/11 06:11:04;;;;;;;19.13;3.67;;;;;;;;;;4992822;28;20478;-67
2021/12/11 06:13:30;;;;;;;13.57;2.85;;;;;;;;;;4992193;28;20018;-67
2021/12/11 06:15:58;;;;;;;16.10;2.97;;;;;;;;;;4991244;28;20024;-67
2021/12/11 06:18:24;;;;;;;16.38;3.08;;;;;;;;;;4992154;28;20084;-67
2021/12/11 06:20:51;;;;;;;17.38;3.15;;;;;;;;;;4992174;28;20030;-67
2021/12/11 06:23:18;;;;;;;17.27;4.05;;;;;;;;;;4996855;28;20461;-68
2021/12/11 06:25:45;;;;;;;22.60;3.80;;;;;;;;;;4994955;28;20474;-67
2021/12/11 06:28:11;;;;;;;12.20;3.90;;;;;;;;;;4995307;28;20026;-67
2021/12/11 06:30:39;;;;;;;15.27;3.80;;;;;;;;;;4995838;28;20030;-67
2021/12/11 06:33:05;;;;;;;20.23;5.05;;;;;;;;;;4996716;28;20034;-67
2021/12/11 06:35:48;;;;;;;17.13;3.70;;;;;;;;;;4995519;28;20141;-67
2021/12/11 06:38:16;;;;;;;16.33;3.60;;;;;;;;;;4996373;28;20110;-67
2021/12/11 06:40:43;;;;;;;20.50;4.88;;;;;;;;;;4995952;28;20118;-67
2021/12/11 06:43:09;;;;;;;25.33;4.13;;;;;;;;;;4996368;28;20486;-67
2021/12/11 06:45:37;;;;;;;20.20;3.85;;;;;;;;;;4996099;28;20113;-67
2021/12/11 06:48:03;;;;;;;14.05;3.97;;;;;;;;;;4995943;28;20018;-67
2021/12/11 06:50:29;;;;;;;31.02;5.07;;;;;;;;;;4994151;28;20097;-67
2021/12/11 06:52:56;;;;;;;22.42;3.90;;;;;;;;;;4996773;28;20092;-67
2021/12/11 06:55:22;;;;;;;22.25;4.90;;;;;;;;;;4995863;28;20106;-67
2021/12/11 06:57:49;;;;;;;21.67;3.60;;;;;;;;;;4995975;28;20054;-67
2021/12/11 07:00:16;;;;;;;22.90;4.18;;;;;;;;;;4996063;28;20031;-67
2021/12/11 07:02:43;;;;;;;10.10;3.55;;;;;;;;;;4995550;28;20554;-66
2021/12/11 07:05:09;;;;;;;18.45;3.55;;;;;;;;;;4995186;28;20053;-66
2021/12/11 07:07:37;;;;;;;22.92;4.05;;;;;;;;;;4995170;28;20026;-67
2021/12/11 07:10:07;;;;;;;17.98;3.65;;;;;;;;;;4991386;28;20091;-67
2021/12/11 07:12:33;;;;;;;20.52;3.72;;;;;;;;;;4994743;28;20499;-67
2021/12/11 07:14:59;;;;;;;14.73;2.80;;;;;;;;;;4994934;28;20034;-67
2021/12/11 07:17:26;;;;;;;12.20;3.40;;;;;;;;;;4995024;28;20406;-67
2021/12/11 07:19:52;;;;;;;12.43;3.13;;;;;;;;;;4994008;28;20101;-67
2021/12/11 07:22:18;;;;;;;24.35;3.58;;;;;;;;;;4993336;28;20433;-67
2021/12/11 07:24:47;;;;;;;17.58;4.03;;;;;;;;;;4993320;28;20066;-67
2021/12/11 07:27:13;;;;;;;16.80;3.17;;;;;;;;;;4993332;28;20548;-67
2021/12/11 07:29:40;;;;;;;20.65;3.47;;;;;;;;;;4993255;28;20478;-67
2021/12/11 07:32:06;;;;;;;13.68;3.13;;;;;;;;;;4992222;28;21334;-67
2021/12/11 07:34:32;;;;;;;20.67;5.32;;;;;;;;;;4993348;28;20073;-67
2021/12/11 07:37:01;;;;;;;23.42;4.00;;;;;;;;;;4992340;28;20402;-67
2021/12/11 07:39:28;;;;;;;22.65;4.05;;;;;;;;;;4993574;28;20026;-67
2021/12/11 07:41:56;;;;;;;35.63;5.43;;;;;;;;;;4992776;28;20046;-67
2021/12/11 07:44:23;;;;;;;19.38;3.80;;;;;;;;;;4993442;28;20041;-68
2021/12/11 07:46:50;;;;;;;10.32;3.42;;;;;;;;;;4993121;28;20030;-67
2021/12/11 07:49:16;;;;;;;17.25;3.35;;;;;;;;;;4993400;28;20447;-67
2021/12/11 07:51:42;;;;;;;17.50;3.63;;;;;;;;;;4992806;28;20038;-67
2021/12/11 07:54:09;;;;;;;15.82;4.63;;;;;;;;;;4993225;28;20026;-67
2021/12/11 07:56:36;;;;;;;22.33;3.70;;;;;;;;;;4994258;28;20041;-67
2021/12/11 07:59:04;;;;;;;19.05;4.15;;;;;;;;;;4992726;28;20034;-66
2021/12/11 08:01:32;;;;;;;19.23;3.63;;;;;;;;;;4993964;28;20034;-66
2021/12/11 08:04:00;;;;;;;18.73;5.10;;;;;;;;;;4993438;28;20027;-66
2021/12/11 08:06:26;;;;;;;19.23;4.70;;;;;;;;;;4995004;28;20058;-66
2021/12/11 08:08:52;;;;;;;17.63;2.97;;;;;;;;;;4994011;28;20483;-66
2021/12/11 08:11:19;;;;;;;17.55;3.35;;;;;;;;;;4994967;28;20038;-66
2021/12/11 08:13:48;;;;;;;14.15;3.47;;;;;;;;;;4994345;28;20054;-66
2021/12/11 08:16:18;;;;;;;25.17;3.30;;;;;;;;;;4993996;28;20014;-66
2021/12/11 08:18:44;;;;;;;12.85;3.05;;;;;;;;;;4989244;28;20034;-66
2021/12/11 08:21:10;;;;;;;25.83;3.35;;;;;;;;;;5007893;28;20105;-66
2021/12/11 08:23:43;;;;;;;25.17;3.78;;;;;;;;;;4994274;28;20038;-66
2021/12/11 08:26:10;;;;;;;19.65;3.97;;;;;;;;;;4994125;28;20026;-66
2021/12/11 08:28:36;;;;;;;15.95;3.08;;;;;;;;;;4991349;28;20193;-65
2021/12/11 08:31:02;;;;;;;18.55;3.10;;;;;;;;;;4993667;28;20018;-66
2021/12/11 08:33:29;;;;;;;22.98;3.83;;;;;;;;;;4994846;28;20036;-65
2021/12/11 08:35:55;;;;;;;19.05;3.33;;;;;;;;;;4993621;28;20057;-66
2021/12/11 08:38:21;;;;;;;23.95;4.10;;;;;;;;;;4994061;28;20023;-66
2021/12/11 08:40:50;;;;;;;22.95;6.13;;;;;;;;;;4993492;28;20085;-66
2021/12/11 08:43:17;;;;;;;18.30;3.28;;;;;;;;;;4993502;28;20033;-66
2021/12/11 08:45:49;;;;;;;15.88;3.65;;;;;;;;;;4993380;28;20026;-66
2021/12/11 08:48:17;;;;;;;20.80;4.53;;;;;;;;;;4994058;28;20096;-66
2021/12/11 08:50:44;;;;;;;23.05;4.55;;;;;;;;;;4993862;28;20292;-66
2021/12/11 08:53:10;;;;;;;15.95;4.15;;;;;;;;;;4993357;28;20026;-66
2021/12/11 08:55:38;;;;;;;20.08;5.00;;;;;;;;;;4994249;28;20486;-66
2021/12/11 08:58:07;;;;;;;16.90;4.20;;;;;;;;;;4992135;28;20026;-66
2021/12/11 09:00:36;;;;;;;24.13;4.55;;;;;;;;;;4993156;28;20053;-66
2021/12/11 09:03:15;;;;;;;19.58;4.18;;;;;;;;;;4992415;28;20030;-66
2021/12/11 09:05:45;;;;;;;21.35;4.88;;;;;;;;;;4991658;28;20387;-66
2021/12/11 09:08:27;;;;;;;20.35;3.83;;;;;;;;;;5006060;28;20038;-66
2021/12/11 09:10:59;;;;;;;27.85;4.63;;;;;;;;;;4991674;28;20037;-66
2021/12/11 09:13:34;;;;;;;22.45;4.53;;;;;;;;;;4993577;28;20030;-66
2021/12/11 09:16:04;;;;;;;25.17;3.60;;;;;;;;;;4993161;28;20030;-66
2021/12/11 09:18:33;;;;;;;27.48;5.15;;;;;;;;;;4992573;28;20026;-66
2021/12/11 09:21:03;;;;;;;22.98;5.65;;;;;;;;;;4997672;28;20031;-66
2021/12/11 09:23:32;;;;;;;23.52;7.25;;;;;;;;;;4992329;28;20049;-66
2021/12/11 09:26:01;;;;;;;21.10;5.80;;;;;;;;;;4993574;28;20037;-66
2021/12/11 09:28:30;;;;;;;21.17;5.07;;;;;;;;;;4992370;28;20031;-66
2021/12/11 09:31:07;;;;;;;17.65;4.40;;;;;;;;;;4992370;28;20037;-66
2021/12/11 09:33:37;;;;;;;28.48;5.05;;;;;;;;;;4991660;28;20058;-66
2021/12/11 09:36:06;;;;;;;31.90;5.18;;;;;;;;;;4991007;28;20054;-66
2021/12/11 09:38:35;;;;;;;26.25;5.00;;;;;;;;;;4983877;28;20034;-66
2021/12/11 09:41:24;;;;;;;22.35;4.82;;;;;;;;;;4988828;28;20042;-66
2021/12/11 09:44:02;;;;;;;29.65;5.68;;;;;;;;;;4992105;28;20081;-66
2021/12/11 09:46:34;;;;;;;21.10;6.10;;;;;;;;;;4991774;28;20015;-66
2021/12/11 09:49:01;;;;;;;15.77;4.68;;;;;;;;;;5002651;28;20023;-66
2021/12/11 09:51:31;;;;;;;24.42;4.35;;;;;;;;;;4991399;28;20034;-66
2021/12/11 09:53:59;;;;;;;31.55;4.60;;;;;;;;;;4990625;28;20038;-66
2021/12/11 09:56:33;;;;;;;23.33;4.05;;;;;;;;;;4991049;28;20034;-69
2021/12/11 09:59:01;;;;;;;16.42;2.97;;;;;;;;;;4992636;28;20030;-66
2021/12/11 10:01:32;;;;;;;22.67;4.30;;;;;;;;;;4991831;28;20092;-65
2021/12/11 10:04:10;;;;;;;18.73;3.25;;;;;;;;;;4992835;28;20034;-66
2021/12/11 10:07:13;;;;;;;23.90;4.00;;;;;;;;;;4986558;28;20034;-66
2021/12/11 10:09:46;;;;;;;16.77;3.20;;;;;;;;;;4990816;28;20398;-66
2021/12/11 10:12:15;;;;;;;21.45;3.90;;;;;;;;;;4990486;28;20027;-66
2021/12/11 10:14:50;;;;;;;25.20;3.70;;;;;;;;;;4976953;28;20098;-66
2021/12/11 10:17:20;;;;;;;27.70;5.80;;;;;;;;;;4983287;28;20475;-66
2021/12/11 10:19:47;;;;;;;32.00;9.68;;;;;;;;;;4989845;28;20034;-66
2021/12/11 10:22:16;;;;;;;25.95;8.98;;;;;;;;;;4988789;28;20033;-66
2021/12/11 10:24:43;;;;;;;28.92;7.82;;;;;;;;;;4988031;28;20053;-66
2021/12/11 10:27:10;;;;;;;27.23;6.88;;;;;;;;;;4988900;28;20034;-66
2021/12/11 10:29:37;;;;;;;24.20;5.88;;;;;;;;;;4990955;28;20184;-66
2021/12/11 10:32:06;;;;;;;20.00;5.75;;;;;;;;;;4991533;28;20031;-66
2021/12/11 10:34:34;;;;;;;22.77;4.38;;;;;;;;;;4988713;28;20383;-66
2021/12/11 10:37:14;;;;;;;28.67;5.00;;;;;;;;;;4990848;28;20037;-66
2021/12/11 10:39:41;;;;;;;22.35;4.63;;;;;;;;;;4991381;28;20038;-66
2021/12/11 10:42:07;;;;;;;17.25;4.22;;;;;;;;;;4990936;28;20038;-66
2021/12/11 10:44:35;;;;;;;23.50;4.32;;;;;;;;;;4990764;28;20027;-66
2021/12/11 10:47:11;;;;;;;23.08;4.22;;;;;;;;;;4991746;28;20038;-66
2021/12/11 10:49:37;;;;;;;25.52;4.18;;;;;;;;;;4991460;28;20054;-66
2021/12/11 10:52:06;;;;;;;22.55;4.28;;;;;;;;;;4992166;28;20145;-66
2021/12/11 10:54:32;;;;;;;22.25;4.45;;;;;;;;;;4992353;28;20030;-66
2021/12/11 10:56:59;;;;;;;22.70;4.50;;;;;;;;;;4991912;28;20031;-66
2021/12/11 10:59:29;;;;;;;26.48;5.35;;;;;;;;;;4991621;28;20038;-66
2021/12/11 11:01:57;;;;;;;26.40;6.15;;;;;;;;;;4992068;28;20030;-66
2021/12/11 11:04:26;;;;;;;25.35;4.50;;;;;;;;;;4991896;28;20051;-66
2021/12/11 11:06:53;;;;;;;23.08;4.75;;;;;;;;;;4991948;28;20037;-66
2021/12/11 11:09:19;;;;;;;17.33;4.78;;;;;;;;;;4995258;28;20456;-66
2021/12/11 11:11:46;;;;;;;22.33;5.72;;;;;;;;;;4995054;28;20026;-66
2021/12/11 11:14:13;;;;;;;25.02;4.90;;;;;;;;;;4995364;28;20085;-66
2021/12/11 11:16:41;;;;;;;17.95;4.63;;;;;;;;;;4995107;28;20109;-66
2021/12/11 11:19:07;;;;;;;19.75;4.70;;;;;;;;;;4995473;28;20386;-66
2021/12/11 11:21:36;;;;;;;18.98;3.63;;;;;;;;;;4995513;28;20073;-66
2021/12/11 11:24:04;;;;;;;23.75;4.22;;;;;;;;;;4995292;28;20497;-66
2021/12/11 11:26:32;;;;;;;13.20;4.13;;;;;;;;;;4995195;28;20394;-66
2021/12/11 11:28:59;;;;;;;15.00;4.18;;;;;;;;;;4995204;28;20501;-66
2021/12/11 11:31:27;;;;;;;14.10;4.40;;;;;;;;;;4995088;28;20032;-66
2021/12/11 11:33:53;;;;;;;13.70;3.10;;;;;;;;;;4994658;28;20073;-66
2021/12/11 11:36:21;;;;;;;11.40;3.92;;;;;;;;;;4994871;28;20105;-66
2021/12/11 11:38:52;;;;;;;10.70;2.88;;;;;;;;;;4993881;28;20034;-66
2021/12/11 11:41:20;;;;;;;10.70;2.75;;;;;;;;;;4995302;28;20084;-66
2021/12/11 11:43:47;;;;;;;12.07;3.22;;;;;;;;;;4995054;28;20030;-66
2021/12/11 11:46:14;;;;;;;15.13;3.80;;;;;;;;;;4994793;28;20540;-66
2021/12/11 11:48:42;;;;;;;9.38;2.83;;;;;;;;;;4992803;28;20038;-66
2021/12/11 11:51:11;;;;;;;10.10;2.63;;;;;;;;;;4995740;28;20038;-66
2021/12/11 11:53:37;;;;;;;7.30;2.80;;;;;;;;;;4998276;28;20541;-66
2021/12/11 11:56:06;;;;;;;7.18;2.35;;;;;;;;;;4992383;28;20106;-66
2021/12/11 11:58:33;;;;;;;6.53;2.33;;;;;;;;;;4992135;28;20033;-66
2021/12/11 12:01:06;;;;;;;5.95;2.25;;;;;;;;;;4992841;28;20024;-66
2021/12/11 12:03:33;;;;;;;7.90;3.17;;;;;;;;;;4993182;28;20546;-66
2021/12/11 12:06:00;;;;;;;4.18;2.50;;;;;;;;;;4991810;28;20390;-66
2021/12/11 12:08:27;;;;;;;3.05;1.80;;;;;;;;;;4989001;28;20057;-66
2021/12/11 12:10:55;;;;;;;7.40;1.83;;;;;;;;;;4989329;28;20547;-66
2021/12/11 12:13:23;;;;;;;5.45;2.42;;;;;;;;;;4991146;28;20080;-66
2021/12/11 12:15:51;;;;;;;8.55;2.17;;;;;;;;;;4990840;28;20109;-66
2021/12/11 12:18:18;;;;;;;3.92;2.25;;;;;;;;;;4988172;28;20030;-66
2021/12/11 12:20:45;;;;;;;5.32;1.85;;;;;;;;;;4991235;28;20098;-66
2021/12/11 12:23:12;;;;;;;3.05;1.45;;;;;;;;;;4993676;28;20402;-66
2021/12/11 12:25:39;;;;;;;7.20;1.20;;;;;;;;;;4991228;28;20038;-66
2021/12/11 12:28:05;;;;;;;4.90;1.40;;;;;;;;;;4990829;28;20138;-67
2021/12/11 12:30:33;;;;;;;2.08;1.20;;;;;;;;;;4990340;28;20038;-67
2021/12/11 12:33:00;;;;;;;2.03;1.27;;;;;;;;;;4989319;28;20058;-67
2021/12/11 12:35:27;;;;;;;3.95;1.42;;;;;;;;;;4990097;28;20418;-67
2021/12/11 12:37:54;;;;;;;1.98;1.20;;;;;;;;;;4990172;28;20105;-67
2021/12/11 12:40:28;;;;;;;1.17;1.05;;;;;;;;;;4989876;28;20105;-67
2021/12/11 12:42:57;;;;;;;1.92;1.13;;;;;;;;;;4991210;28;20096;-67
2021/12/11 12:45:35;;;;;;;2.22;1.30;;;;;;;;;;4988653;28;20453;-67
2021/12/11 12:48:05;;;;;;;3.42;1.25;;;;;;;;;;4990569;28;20026;-67
2021/12/11 12:50:59;;;;;;;2.22;1.45;;;;;;;;;;4988396;28;20486;-67
2021/12/11 12:53:24;;;;;;;;;;;;;;;;;;4987468;28;20061;-67
2021/12/11 12:55:58;;;;;;;1.92;1.20;;;;;;;;;;4990658;28;19906;-67
2021/12/11 12:58:29;;;;;;;1.98;1.30;;;;;;;;;;4990607;28;20034;-67
2021/12/11 13:00:57;;;;;;;2.63;1.25;;;;;;;;;;4988221;28;20049;-67
2021/12/11 13:03:26;;;;;;;2.17;1.30;;;;;;;;;;4990428;28;20026;-67
2021/12/11 13:06:01;;;;;;;3.50;1.75;;;;;;;;;;4987864;28;20450;-67
2021/12/11 13:08:43;;;;;;;1.58;1.08;;;;;;;;;;4991355;28;20038;-67
2021/12/11 13:11:16;;;;;;;1.85;1.40;;;;;;;;;;4991024;28;20482;-67
2021/12/11 13:13:42;;;;;;;2.80;1.80;;;;;;;;;;4988588;28;20093;-67
2021/12/11 13:16:13;;;;;;;2.47;1.40;;;;;;;;;;4991382;28;20720;-67
2021/12/11 13:18:42;;;;;;;4.65;1.50;;;;;;;;;;4988459;28;20034;-66
2021/12/11 13:21:28;;;;;;;1.60;1.10;;;;;;;;;;4985054;28;20033;-66
2021/12/11 13:23:56;;;;;;;1.63;1.17;;;;;;;;;;4989917;28;20031;-66
2021/12/11 13:26:23;;;;;;;2.47;1.40;;;;;;;;;;4985284;28;20112;-66
2021/12/11 13:28:54;;;;;;;2.25;1.08;;;;;;;;;;4991526;28;20030;-66
2021/12/11 13:31:23;;;;;;;1.73;1.10;;;;;;;;;;4988026;28;20035;-66
2021/12/11 13:33:49;;;;;;;3.17;1.20;;;;;;;;;;4990278;28;20108;-66
2021/12/11 13:36:18;;;;;;;2.13;1.17;;;;;;;;;;4990826;28;20077;-66
2021/12/11 13:38:44;;;;;;;1.75;1.10;;;;;;;;;;4992947;28;20505;-66
2021/12/11 13:41:13;;;;;;;3.03;1.10;;;;;;;;;;4992724;28;20029;-66
2021/12/11 13:43:39;;;;;;;3.67;1.33;;;;;;;;;;4991277;28;20508;-66
2021/12/11 13:46:06;;;;;;;3.80;1.20;;;;;;;;;;4992713;28;20410;-66
2021/12/11 13:48:33;;;;;;;1.77;1.00;;;;;;;;;;4993179;28;20023;-66
2021/12/11 13:51:04;;;;;;;3.08;1.08;;;;;;;;;;4991546;28;20478;-66
2021/12/11 13:53:31;;;;;;;1.77;1.08;;;;;;;;;;4992927;28;20030;-66
2021/12/11 13:55:58;;;;;;;1.85;0.80;;;;;;;;;;4992527;28;20376;-67
2021/12/11 13:58:25;;;;;;;1.88;1.15;;;;;;;;;;4991475;28;20030;-66
2021/12/11 14:00:56;;;;;;;2.45;1.40;;;;;;;;;;4992188;28;20027;-66
2021/12/11 14:03:24;;;;;;;3.78;1.38;;;;;;;;;;4991962;28;20049;-66
2021/12/11 14:05:51;;;;;;;2.20;1.50;;;;;;;;;;4992305;28;20035;-66
2021/12/11 14:08:19;;;;;;;2.08;1.40;;;;;;;;;;4992077;28;20359;-66
2021/12/11 14:10:45;;;;;;;4.75;1.30;;;;;;;;;;4992485;28;20608;-66
2021/12/11 14:13:13;;;;;;;4.22;1.50;;;;;;;;;;4992492;28;20036;-66
2021/12/11 14:15:41;;;;;;;1.63;1.33;;;;;;;;;;4992173;28;20030;-66
2021/12/11 14:18:08;;;;;;;2.75;1.80;;;;;;;;;;4990618;28;20193;-66
2021/12/11 14:20:35;;;;;;;4.50;1.70;;;;;;;;;;4992139;28;20501;-66
2021/12/11 14:23:02;;;;;;;5.72;1.85;;;;;;;;;;4991482;28;20077;-66
2021/12/11 14:25:32;;;;;;;2.80;1.52;;;;;;;;;;4992470;28;20037;-66
2021/12/11 14:27:59;;;;;;;2.63;1.58;;;;;;;;;;4990772;28;20030;-66
2021/12/11 14:30:25;;;;;;;3.90;1.42;;;;;;;;;;4991664;28;20105;-66
2021/12/11 14:32:54;;;;;;;2.92;1.80;;;;;;;;;;4991910;28;20101;-66
2021/12/11 14:35:21;;;;;;;4.22;1.80;;;;;;;;;;4991329;28;20048;-66
2021/12/11 14:37:47;;;;;;;4.28;2.03;;;;;;;;;;4991984;28;20040;-66
2021/12/11 14:40:14;;;;;;;3.97;1.90;;;;;;;;;;4991163;28;20031;-66
2021/12/11 14:42:42;;;;;;;4.97;1.88;;;;;;;;;;4994849;28;20027;-66
2021/12/11 14:45:12;;;;;;;4.95;2.60;;;;;;;;;;4995980;28;20401;-66
2021/12/11 14:47:38;;;;;;;2.78;1.88;;;;;;;;;;4995129;28;20041;-66
2021/12/11 14:50:08;;;;;;;5.03;2.38;;;;;;;;;;4995703;28;20065;-66
2021/12/11 14:52:34;;;;;;;4.95;2.20;;;;;;;;;;4995395;28;20470;-66
2021/12/11 14:55:02;;;;;;;8.40;2.63;;;;;;;;;;4995041;28;20026;-66
2021/12/11 14:57:29;;;;;;;7.57;4.82;;;;;;;;;;4995516;28;20441;-66
2021/12/11 14:59:56;;;;;;;12.82;8.20;;;;;;;;;;4995501;28;20030;-66
2021/12/11 15:02:26;;;;;;;12.52;6.15;;;;;;;;;;4995411;28;20034;-66